sensor_id;sensor_type;location;lat;lon;timestamp;temperature;humidity
37285;DHT22;23172;53.550;9.964;2023-08-31T00:00:23;17.30;98.00
37285;DHT22;23172;53.550;9.964;2023-08-31T00:05:25;17.20;97.90
37285;DHT22;23172;53.550;9.964;2023-08-31T00:10:30;17.20;98.00
37285;DHT22;23172;53.550;9.964;2023-08-31T00:15:32;17.20;97.90
37285;DHT22;23172;53.550;9.964;2023-08-31T00:20:35;17.10;97.90
37285;DHT22;23172;53.550;9.964;2023-08-31T00:25:39;17.10;97.90
37285;DHT22;23172;53.550;9.964;2023-08-31T00:30:44;17.00;98.00
37285;DHT22;23172;53.550;9.964;2023-08-31T00:35:46;17.00;98.00
37285;DHT22;23172;53.550;9.964;2023-08-31T00:40:50;16.90;98.00
37285;DHT22;23172;53.550;9.964;2023-08-31T00:45:54;16.80;98.00
37285;DHT22;23172;53.550;9.964;2023-08-31T00:50:58;16.70;98.20
37285;DHT22;23172;53.550;9.964;2023-08-31T00:56:03;16.60;98.30
37285;DHT22;23172;53.550;9.964;2023-08-31T01:01:10;16.60;98.30
37285;DHT22;23172;53.550;9.964;2023-08-31T01:06:23;16.50;98.40
37285;DHT22;23172;53.550;9.964;2023-08-31T01:11:37;16.50;98.40
37285;DHT22;23172;53.550;9.964;2023-08-31T01:16:44;16.40;98.40
37285;DHT22;23172;53.550;9.964;2023-08-31T01:21:48;16.40;98.50
37285;DHT22;23172;53.550;9.964;2023-08-31T01:26:53;16.30;98.50
37285;DHT22;23172;53.550;9.964;2023-08-31T01:31:55;16.20;98.90
37285;DHT22;23172;53.550;9.964;2023-08-31T01:37:05;16.20;98.50
37285;DHT22;23172;53.550;9.964;2023-08-31T01:42:13;16.20;98.70
37285;DHT22;23172;53.550;9.964;2023-08-31T01:47:15;16.10;99.00
37285;DHT22;23172;53.550;9.964;2023-08-31T01:52:19;16.10;98.70
37285;DHT22;23172;53.550;9.964;2023-08-31T01:57:22;16.10;98.80
37285;DHT22;23172;53.550;9.964;2023-08-31T02:02:24;15.90;98.90
37285;DHT22;23172;53.550;9.964;2023-08-31T02:07:26;15.90;99.00
37285;DHT22;23172;53.550;9.964;2023-08-31T02:12:30;15.80;99.10
37285;DHT22;23172;53.550;9.964;2023-08-31T02:17:31;15.80;99.20
37285;DHT22;23172;53.550;9.964;2023-08-31T02:22:34;15.80;99.20
37285;DHT22;23172;53.550;9.964;2023-08-31T02:27:37;15.80;99.20
37285;DHT22;23172;53.550;9.964;2023-08-31T02:32:39;15.70;99.20
37285;DHT22;23172;53.550;9.964;2023-08-31T02:37:41;15.70;99.30
37285;DHT22;23172;53.550;9.964;2023-08-31T02:42:44;15.60;99.40
37285;DHT22;23172;53.550;9.964;2023-08-31T02:47:46;15.60;99.40
37285;DHT22;23172;53.550;9.964;2023-08-31T02:52:50;15.50;99.50
37285;DHT22;23172;53.550;9.964;2023-08-31T02:57:53;15.50;99.80
37285;DHT22;23172;53.550;9.964;2023-08-31T03:02:55;15.40;99.50
37285;DHT22;23172;53.550;9.964;2023-08-31T03:07:57;15.50;99.50
37285;DHT22;23172;53.550;9.964;2023-08-31T03:13:00;15.30;99.40
37285;DHT22;23172;53.550;9.964;2023-08-31T03:18:02;15.30;99.50
37285;DHT22;23172;53.550;9.964;2023-08-31T05:14:03;15.20;99.40
37285;DHT22;23172;53.550;9.964;2023-08-31T05:19:05;14.80;99.70
37285;DHT22;23172;53.550;9.964;2023-08-31T05:24:07;14.80;99.30
37285;DHT22;23172;53.550;9.964;2023-08-31T05:29:10;14.80;99.30
37285;DHT22;23172;53.550;9.964;2023-08-31T05:34:16;14.80;99.30
37285;DHT22;23172;53.550;9.964;2023-08-31T05:39:17;14.90;99.30
37285;DHT22;23172;53.550;9.964;2023-08-31T05:44:22;14.90;99.20
37285;DHT22;23172;53.550;9.964;2023-08-31T05:49:24;14.90;99.40
37285;DHT22;23172;53.550;9.964;2023-08-31T05:54:25;14.90;98.90
37285;DHT22;23172;53.550;9.964;2023-08-31T05:59:29;15.00;98.80
37285;DHT22;23172;53.550;9.964;2023-08-31T06:04:31;15.10;98.70
37285;DHT22;23172;53.550;9.964;2023-08-31T06:09:32;15.10;98.70
37285;DHT22;23172;53.550;9.964;2023-08-31T06:14:36;15.20;98.60
37285;DHT22;23172;53.550;9.964;2023-08-31T06:19:37;15.20;98.40
37285;DHT22;23172;53.550;9.964;2023-08-31T06:24:39;15.20;98.40
37285;DHT22;23172;53.550;9.964;2023-08-31T06:29:44;15.20;98.20
37285;DHT22;23172;53.550;9.964;2023-08-31T06:34:46;15.30;98.20
37285;DHT22;23172;53.550;9.964;2023-08-31T06:39:48;15.30;98.20
37285;DHT22;23172;53.550;9.964;2023-08-31T06:44:52;15.40;97.90
37285;DHT22;23172;53.550;9.964;2023-08-31T06:49:53;15.40;97.80
37285;DHT22;23172;53.550;9.964;2023-08-31T06:54:55;15.40;97.70
37285;DHT22;23172;53.550;9.964;2023-08-31T07:00:00;15.40;97.60
37285;DHT22;23172;53.550;9.964;2023-08-31T07:05:04;15.50;97.50
37285;DHT22;23172;53.550;9.964;2023-08-31T07:10:07;15.60;97.30
37285;DHT22;23172;53.550;9.964;2023-08-31T07:15:11;15.60;97.10
37285;DHT22;23172;53.550;9.964;2023-08-31T07:20:12;15.70;96.90
37285;DHT22;23172;53.550;9.964;2023-08-31T07:25:14;15.80;96.80
37285;DHT22;23172;53.550;9.964;2023-08-31T07:30:18;15.90;96.50
37285;DHT22;23172;53.550;9.964;2023-08-31T07:35:19;16.00;96.30
37285;DHT22;23172;53.550;9.964;2023-08-31T07:40:21;16.20;96.00
37285;DHT22;23172;53.550;9.964;2023-08-31T07:45:25;16.30;95.40
37285;DHT22;23172;53.550;9.964;2023-08-31T07:50:27;16.50;94.90
37285;DHT22;23172;53.550;9.964;2023-08-31T07:55:29;16.60;94.90
37285;DHT22;23172;53.550;9.964;2023-08-31T08:00:32;16.80;94.20
37285;DHT22;23172;53.550;9.964;2023-08-31T08:05:34;16.90;93.70
37285;DHT22;23172;53.550;9.964;2023-08-31T08:10:36;17.10;93.40
37285;DHT22;23172;53.550;9.964;2023-08-31T08:15:39;17.30;92.10
37285;DHT22;23172;53.550;9.964;2023-08-31T08:20:41;17.60;91.60
37285;DHT22;23172;53.550;9.964;2023-08-31T08:25:43;17.70;90.30
37285;DHT22;23172;53.550;9.964;2023-08-31T08:30:46;17.70;90.10
37285;DHT22;23172;53.550;9.964;2023-08-31T08:35:48;17.80;89.30
37285;DHT22;23172;53.550;9.964;2023-08-31T08:40:50;17.90;88.20
37285;DHT22;23172;53.550;9.964;2023-08-31T08:45:54;18.60;86.10
37285;DHT22;23172;53.550;9.964;2023-08-31T08:51:00;18.50;83.00
37285;DHT22;23172;53.550;9.964;2023-08-31T08:56:03;18.40;82.50
37285;DHT22;23172;53.550;9.964;2023-08-31T09:01:07;18.40;82.80
37285;DHT22;23172;53.550;9.964;2023-08-31T09:06:09;18.80;82.40
37285;DHT22;23172;53.550;9.964;2023-08-31T09:11:20;18.70;81.50
37285;DHT22;23172;53.550;9.964;2023-08-31T09:16:28;19.50;81.30
37285;DHT22;23172;53.550;9.964;2023-08-31T09:21:36;21.00;79.40
37285;DHT22;23172;53.550;9.964;2023-08-31T09:26:38;21.10;71.30
37285;DHT22;23172;53.550;9.964;2023-08-31T09:31:43;21.20;73.40
37285;DHT22;23172;53.550;9.964;2023-08-31T09:36:45;21.40;70.60
37285;DHT22;23172;53.550;9.964;2023-08-31T09:41:54;21.60;69.10
37285;DHT22;23172;53.550;9.964;2023-08-31T09:46:58;21.50;68.30
37285;DHT22;23172;53.550;9.964;2023-08-31T09:52:03;20.80;68.20
37285;DHT22;23172;53.550;9.964;2023-08-31T09:57:06;20.50;69.10
37285;DHT22;23172;53.550;9.964;2023-08-31T10:02:10;20.80;69.20
37285;DHT22;23172;53.550;9.964;2023-08-31T10:07:12;21.00;68.20
37285;DHT22;23172;53.550;9.964;2023-08-31T10:12:15;21.10;67.50
37285;DHT22;23172;53.550;9.964;2023-08-31T10:17:20;21.40;65.60
37285;DHT22;23172;53.550;9.964;2023-08-31T10:22:23;21.60;64.80
37285;DHT22;23172;53.550;9.964;2023-08-31T10:27:25;21.60;63.70
37285;DHT22;23172;53.550;9.964;2023-08-31T10:32:28;21.50;63.60
37285;DHT22;23172;53.550;9.964;2023-08-31T10:37:30;21.80;63.50
37285;DHT22;23172;53.550;9.964;2023-08-31T10:42:31;21.70;62.60
37285;DHT22;23172;53.550;9.964;2023-08-31T10:47:39;21.80;62.70
37285;DHT22;23172;53.550;9.964;2023-08-31T10:52:44;21.80;62.00
37285;DHT22;23172;53.550;9.964;2023-08-31T10:57:46;21.70;61.30
37285;DHT22;23172;53.550;9.964;2023-08-31T11:02:50;21.70;61.30
37285;DHT22;23172;53.550;9.964;2023-08-31T11:07:51;21.70;60.80
37285;DHT22;23172;53.550;9.964;2023-08-31T11:12:54;21.80;60.70
37285;DHT22;23172;53.550;9.964;2023-08-31T11:17:59;21.80;59.80
37285;DHT22;23172;53.550;9.964;2023-08-31T11:23:01;21.70;59.70
37285;DHT22;23172;53.550;9.964;2023-08-31T11:28:06;21.60;59.50
37285;DHT22;23172;53.550;9.964;2023-08-31T11:33:09;22.80;60.80
37285;DHT22;23172;53.550;9.964;2023-08-31T11:38:13;25.50;58.60
37285;DHT22;23172;53.550;9.964;2023-08-31T11:43:15;25.40;54.80
37285;DHT22;23172;53.550;9.964;2023-08-31T11:48:20;24.70;54.10
37285;DHT22;23172;53.550;9.964;2023-08-31T11:53:22;25.00;53.70
37285;DHT22;23172;53.550;9.964;2023-08-31T11:58:26;24.60;52.70
37285;DHT22;23172;53.550;9.964;2023-08-31T12:03:41;24.50;53.80
37285;DHT22;23172;53.550;9.964;2023-08-31T12:08:44;26.90;52.10
37285;DHT22;23172;53.550;9.964;2023-08-31T12:13:46;28.50;51.40
37285;DHT22;23172;53.550;9.964;2023-08-31T12:18:49;28.80;48.60
37285;DHT22;23172;53.550;9.964;2023-08-31T12:23:52;28.70;46.40
37285;DHT22;23172;53.550;9.964;2023-08-31T12:28:54;29.00;46.60
37285;DHT22;23172;53.550;9.964;2023-08-31T12:33:58;29.70;45.40
37285;DHT22;23172;53.550;9.964;2023-08-31T12:39:00;29.00;43.70
37285;DHT22;23172;53.550;9.964;2023-08-31T12:44:07;27.20;44.80
37285;DHT22;23172;53.550;9.964;2023-08-31T12:49:10;25.30;48.20
37285;DHT22;23172;53.550;9.964;2023-08-31T12:54:12;23.60;50.30
37285;DHT22;23172;53.550;9.964;2023-08-31T12:59:14;22.60;53.10
37285;DHT22;23172;53.550;9.964;2023-08-31T13:04:18;22.10;54.80
37285;DHT22;23172;53.550;9.964;2023-08-31T13:09:20;22.00;55.10
37285;DHT22;23172;53.550;9.964;2023-08-31T13:14:21;22.00;55.40
37285;DHT22;23172;53.550;9.964;2023-08-31T13:19:25;22.30;55.60
37285;DHT22;23172;53.550;9.964;2023-08-31T13:24:27;22.60;54.70
37285;DHT22;23172;53.550;9.964;2023-08-31T13:29:30;22.60;54.80
37285;DHT22;23172;53.550;9.964;2023-08-31T13:34:34;22.60;54.60
37285;DHT22;23172;53.550;9.964;2023-08-31T13:39:37;22.60;53.70
37285;DHT22;23172;53.550;9.964;2023-08-31T13:44:40;22.50;54.00
37285;DHT22;23172;53.550;9.964;2023-08-31T13:49:44;22.60;54.20
37285;DHT22;23172;53.550;9.964;2023-08-31T13:54:45;23.20;53.60
37285;DHT22;23172;53.550;9.964;2023-08-31T13:59:47;23.40;52.90
37285;DHT22;23172;53.550;9.964;2023-08-31T14:04:51;23.30;53.30
37285;DHT22;23172;53.550;9.964;2023-08-31T14:09:52;23.60;53.10
37285;DHT22;23172;53.550;9.964;2023-08-31T14:14:54;23.90;52.90
37285;DHT22;23172;53.550;9.964;2023-08-31T14:19:58;24.10;52.80
37285;DHT22;23172;53.550;9.964;2023-08-31T14:25:01;24.10;52.80
37285;DHT22;23172;53.550;9.964;2023-08-31T14:30:05;24.10;52.70
37285;DHT22;23172;53.550;9.964;2023-08-31T14:35:09;23.60;53.20
37285;DHT22;23172;53.550;9.964;2023-08-31T14:40:11;23.10;53.60
37285;DHT22;23172;53.550;9.964;2023-08-31T14:45:14;22.90;54.20
37285;DHT22;23172;53.550;9.964;2023-08-31T14:50:17;22.60;54.50
37285;DHT22;23172;53.550;9.964;2023-08-31T14:55:21;22.60;54.60
37285;DHT22;23172;53.550;9.964;2023-08-31T15:00:23;22.40;54.70
37285;DHT22;23172;53.550;9.964;2023-08-31T15:05:26;22.00;55.30
37285;DHT22;23172;53.550;9.964;2023-08-31T15:10:32;21.70;56.00
37285;DHT22;23172;53.550;9.964;2023-08-31T15:15:34;21.50;56.60
37285;DHT22;23172;53.550;9.964;2023-08-31T15:20:37;21.30;57.20
37285;DHT22;23172;53.550;9.964;2023-08-31T15:25:42;21.20;57.80
37285;DHT22;23172;53.550;9.964;2023-08-31T15:30:44;21.00;57.70
37285;DHT22;23172;53.550;9.964;2023-08-31T15:35:47;20.90;58.10
37285;DHT22;23172;53.550;9.964;2023-08-31T15:40:50;20.70;58.30
37285;DHT22;23172;53.550;9.964;2023-08-31T15:45:51;20.50;59.80
37285;DHT22;23172;53.550;9.964;2023-08-31T15:50:56;20.50;59.40
37285;DHT22;23172;53.550;9.964;2023-08-31T15:55:58;20.50;59.90
37285;DHT22;23172;53.550;9.964;2023-08-31T16:00:59;20.40;60.10
37285;DHT22;23172;53.550;9.964;2023-08-31T16:06:06;20.50;60.00
37285;DHT22;23172;53.550;9.964;2023-08-31T16:11:08;20.50;59.60
37285;DHT22;23172;53.550;9.964;2023-08-31T16:16:10;20.50;59.50
37285;DHT22;23172;53.550;9.964;2023-08-31T16:21:13;20.60;59.40
37285;DHT22;23172;53.550;9.964;2023-08-31T16:26:15;20.70;59.80
37285;DHT22;23172;53.550;9.964;2023-08-31T16:31:17;20.70;60.30
37285;DHT22;23172;53.550;9.964;2023-08-31T16:36:20;20.50;61.50
37285;DHT22;23172;53.550;9.964;2023-08-31T16:41:22;20.40;62.00
37285;DHT22;23172;53.550;9.964;2023-08-31T16:46:24;20.30;62.50
37285;DHT22;23172;53.550;9.964;2023-08-31T16:51:27;20.10;63.00
37285;DHT22;23172;53.550;9.964;2023-08-31T16:56:29;20.00;63.50
37285;DHT22;23172;53.550;9.964;2023-08-31T17:01:31;19.70;64.50
37285;DHT22;23172;53.550;9.964;2023-08-31T17:06:34;19.60;65.30
37285;DHT22;23172;53.550;9.964;2023-08-31T17:11:36;19.50;65.80
37285;DHT22;23172;53.550;9.964;2023-08-31T17:16:38;19.40;66.70
37285;DHT22;23172;53.550;9.964;2023-08-31T17:21:41;19.30;67.20
37285;DHT22;23172;53.550;9.964;2023-08-31T17:26:43;19.20;67.90
37285;DHT22;23172;53.550;9.964;2023-08-31T17:31:45;19.20;68.30
37285;DHT22;23172;53.550;9.964;2023-08-31T17:36:49;19.10;68.80
37285;DHT22;23172;53.550;9.964;2023-08-31T17:41:51;19.00;69.40
37285;DHT22;23172;53.550;9.964;2023-08-31T17:46:54;18.80;70.00
37285;DHT22;23172;53.550;9.964;2023-08-31T17:51:57;18.70;70.90
37285;DHT22;23172;53.550;9.964;2023-08-31T17:56:59;18.60;71.70
37285;DHT22;23172;53.550;9.964;2023-08-31T18:02:00;18.50;72.30
37285;DHT22;23172;53.550;9.964;2023-08-31T18:07:05;18.50;73.10
37285;DHT22;23172;53.550;9.964;2023-08-31T18:12:08;18.40;73.90
37285;DHT22;23172;53.550;9.964;2023-08-31T18:17:10;18.40;74.20
37285;DHT22;23172;53.550;9.964;2023-08-31T18:22:14;18.30;75.50
37285;DHT22;23172;53.550;9.964;2023-08-31T18:27:15;18.20;76.10
37285;DHT22;23172;53.550;9.964;2023-08-31T18:32:18;18.20;77.00
37285;DHT22;23172;53.550;9.964;2023-08-31T18:37:21;18.20;77.60
37285;DHT22;23172;53.550;9.964;2023-08-31T18:42:24;18.10;78.80
37285;DHT22;23172;53.550;9.964;2023-08-31T18:47:28;18.00;80.50
37285;DHT22;23172;53.550;9.964;2023-08-31T18:52:31;17.90;83.00
37285;DHT22;23172;53.550;9.964;2023-08-31T18:57:33;17.90;83.20
37285;DHT22;23172;53.550;9.964;2023-08-31T19:02:34;17.90;84.50
37285;DHT22;23172;53.550;9.964;2023-08-31T19:07:38;17.80;85.50
37285;DHT22;23172;53.550;9.964;2023-08-31T19:12:40;17.80;86.80
37285;DHT22;23172;53.550;9.964;2023-08-31T19:17:44;17.80;88.30
37285;DHT22;23172;53.550;9.964;2023-08-31T19:22:47;17.70;89.40
37285;DHT22;23172;53.550;9.964;2023-08-31T19:27:49;17.70;90.40
37285;DHT22;23172;53.550;9.964;2023-08-31T19:32:51;17.60;91.00
37285;DHT22;23172;53.550;9.964;2023-08-31T19:37:54;17.50;91.50
37285;DHT22;23172;53.550;9.964;2023-08-31T19:42:56;17.50;92.10
37285;DHT22;23172;53.550;9.964;2023-08-31T19:47:58;17.50;92.50
37285;DHT22;23172;53.550;9.964;2023-08-31T19:53:01;17.50;92.70
37285;DHT22;23172;53.550;9.964;2023-08-31T19:58:03;17.50;92.90
37285;DHT22;23172;53.550;9.964;2023-08-31T20:03:05;17.40;93.00
37285;DHT22;23172;53.550;9.964;2023-08-31T20:08:09;17.40;93.20
37285;DHT22;23172;53.550;9.964;2023-08-31T20:13:11;17.40;93.40
37285;DHT22;23172;53.550;9.964;2023-08-31T20:18:13;17.30;93.50
37285;DHT22;23172;53.550;9.964;2023-08-31T20:23:16;17.30;93.70
37285;DHT22;23172;53.550;9.964;2023-08-31T20:28:19;17.20;93.90
37285;DHT22;23172;53.550;9.964;2023-08-31T20:33:21;17.10;94.20
37285;DHT22;23172;53.550;9.964;2023-08-31T20:38:24;17.10;94.40
37285;DHT22;23172;53.550;9.964;2023-08-31T20:43:26;17.00;94.60
37285;DHT22;23172;53.550;9.964;2023-08-31T20:48:28;16.90;94.80
37285;DHT22;23172;53.550;9.964;2023-08-31T20:53:33;16.90;94.90
37285;DHT22;23172;53.550;9.964;2023-08-31T20:58:35;16.80;95.00
37285;DHT22;23172;53.550;9.964;2023-08-31T21:03:38;16.70;95.20
37285;DHT22;23172;53.550;9.964;2023-08-31T21:08:41;16.70;95.20
37285;DHT22;23172;53.550;9.964;2023-08-31T21:13:43;16.70;95.20
37285;DHT22;23172;53.550;9.964;2023-08-31T21:18:45;16.70;95.30
37285;DHT22;23172;53.550;9.964;2023-08-31T21:23:49;16.70;95.30
37285;DHT22;23172;53.550;9.964;2023-08-31T21:28:51;16.60;95.20
37285;DHT22;23172;53.550;9.964;2023-08-31T21:33:52;16.60;95.40
37285;DHT22;23172;53.550;9.964;2023-08-31T21:38:56;16.60;95.60
37285;DHT22;23172;53.550;9.964;2023-08-31T21:43:59;16.50;95.70
37285;DHT22;23172;53.550;9.964;2023-08-31T21:49:01;16.50;95.80
37285;DHT22;23172;53.550;9.964;2023-08-31T21:54:05;16.50;95.90
37285;DHT22;23172;53.550;9.964;2023-08-31T21:59:07;16.40;95.90
37285;DHT22;23172;53.550;9.964;2023-08-31T22:04:09;16.40;96.10
37285;DHT22;23172;53.550;9.964;2023-08-31T22:09:13;16.30;96.40
37285;DHT22;23172;53.550;9.964;2023-08-31T22:14:15;16.20;96.60
37285;DHT22;23172;53.550;9.964;2023-08-31T22:19:18;16.10;96.60
37285;DHT22;23172;53.550;9.964;2023-08-31T22:24:22;16.10;96.80
37285;DHT22;23172;53.550;9.964;2023-08-31T22:29:24;16.10;96.90
37285;DHT22;23172;53.550;9.964;2023-08-31T22:34:26;16.10;97.00
37285;DHT22;23172;53.550;9.964;2023-08-31T22:39:31;16.00;97.20
37285;DHT22;23172;53.550;9.964;2023-08-31T22:44:33;16.00;97.10
37285;DHT22;23172;53.550;9.964;2023-08-31T22:49:35;16.00;97.20
37285;DHT22;23172;53.550;9.964;2023-08-31T22:54:38;16.00;97.30
37285;DHT22;23172;53.550;9.964;2023-08-31T22:59:40;16.00;97.60
37285;DHT22;23172;53.550;9.964;2023-08-31T23:04:42;15.90;97.60
37285;DHT22;23172;53.550;9.964;2023-08-31T23:09:45;16.00;97.70
37285;DHT22;23172;53.550;9.964;2023-08-31T23:14:48;15.90;97.70
37285;DHT22;23172;53.550;9.964;2023-08-31T23:19:50;15.90;97.90
37285;DHT22;23172;53.550;9.964;2023-08-31T23:24:53;15.90;98.00
37285;DHT22;23172;53.550;9.964;2023-08-31T23:29:55;15.90;98.20
37285;DHT22;23172;53.550;9.964;2023-08-31T23:34:57;15.80;98.40
37285;DHT22;23172;53.550;9.964;2023-08-31T23:40:01;15.80;98.40
37285;DHT22;23172;53.550;9.964;2023-08-31T23:45:06;15.80;98.50
37285;DHT22;23172;53.550;9.964;2023-08-31T23:50:09;15.70;98.50
37285;DHT22;23172;53.550;9.964;2023-08-31T23:55:12;15.80;98.40
